Time;durP1;ratioP1;P1;durP2;ratioP2;P2;SDS_P1;SDS_P2;PMS_P1;PMS_P2;Temp;Humidity;BMP_temperature;BMP_pressure;BME280_temperature;BME280_humidity;BME280_pressure;Samples;Min_cycle;Max_cycle;Signal;HPM_P1;HPM_P2
2022/06/17 00:01:24;;;;;;;13.15;9.75;;;;;;;14.29;88.80;102354.91;5049501;28;20832;-65
2022/06/17 00:03:51;;;;;;;15.57;9.85;;;;;;;14.20;88.60;102351.75;5054099;28;20147;-65
2022/06/17 00:06:18;;;;;;;17.90;10.40;;;;;;;14.20;88.12;102345.53;5053308;28;20380;-65
2022/06/17 00:08:46;;;;;;;12.63;10.43;;;;;;;14.11;88.73;102343.38;5054192;28;20041;-64
2022/06/17 00:11:28;;;;;;;13.20;10.35;;;;;;;14.20;87.87;102345.53;5014993;28;20044;-65
2022/06/17 00:13:54;;;;;;;13.27;10.88;;;;;;;14.10;88.79;102344.28;5048165;28;20040;-65
2022/06/17 00:16:21;;;;;;;14.20;10.32;;;;;;;14.01;88.82;102353.72;5053749;28;21269;-65
2022/06/17 00:18:48;;;;;;;9.80;8.30;;;;;;;13.97;88.11;102355.69;5053755;28;20044;-65
2022/06/17 00:21:29;;;;;;;13.88;8.63;;;;;;;13.95;87.34;102348.66;5051928;28;20063;-65
2022/06/17 00:23:56;;;;;;;13.65;9.15;;;;;;;13.94;88.51;102353.16;5053972;28;20120;-66
2022/06/17 00:26:21;;;;;;;15.00;10.35;;;;;;;13.88;88.83;102355.31;5053032;28;20048;-64
2022/06/17 00:28:48;;;;;;;15.30;11.18;;;;;;;13.92;89.51;102349.72;5054610;28;20032;-65
2022/06/17 00:31:15;;;;;;;14.90;10.93;;;;;;;13.95;89.68;102341.47;5034095;28;20097;-65
2022/06/17 00:33:40;;;;;;;14.38;10.32;;;;;;;13.88;89.80;102352.63;5053832;28;20045;-65
2022/06/17 00:36:11;;;;;;;22.27;11.50;;;;;;;14.01;89.31;102340.31;5031278;28;20044;-65
2022/06/17 00:38:37;;;;;;;15.93;11.82;;;;;;;13.84;91.13;102341.19;5053773;28;20073;-65
2022/06/17 00:41:16;;;;;;;18.00;10.90;;;;;;;13.97;89.40;102342.28;5052758;28;20621;-65
2022/06/17 00:43:44;;;;;;;15.48;11.02;;;;;;;14.08;88.95;102347.06;5054153;28;20064;-65
2022/06/17 00:46:30;;;;;;;14.77;11.18;;;;;;;13.95;88.79;102344.16;5052204;28;20032;-66
2022/06/17 00:49:14;;;;;;;14.80;10.70;;;;;;;13.80;89.58;102341.44;5048324;28;20846;-63
2022/06/17 00:51:48;;;;;;;18.35;10.82;;;;;;;13.72;89.65;102355.25;5024498;28;20490;-64
2022/06/17 00:54:25;;;;;;;18.85;11.48;;;;;;;13.80;89.95;102357.53;5038507;28;20059;-64
2022/06/17 00:56:51;;;;;;;16.02;11.32;;;;;;;13.98;89.30;102348.50;5053759;28;20051;-65
2022/06/17 00:59:17;;;;;;;15.52;12.00;;;;;;;13.93;89.31;102350.56;5031391;28;20166;-65
2022/06/17 01:01:53;;;;;;;17.40;10.88;;;;;;;13.76;90.14;102364.03;5045700;28;20036;-65
2022/06/17 01:04:26;;;;;;;17.77;10.48;;;;;;;13.48;90.14;102366.28;5052323;28;20406;-65
2022/06/17 01:07:23;;;;;;;19.00;9.45;;;;;;;13.37;89.41;102368.66;5051730;28;20118;-65
2022/06/17 01:10:01;;;;;;;13.43;10.10;;;;;;;13.69;88.59;102366.13;5031165;28;20821;-65
2022/06/17 01:12:38;;;;;;;14.75;9.85;;;;;;;13.71;88.96;102364.25;5048674;28;20044;-65
2022/06/17 01:15:06;;;;;;;13.13;10.10;;;;;;;13.71;89.01;102358.91;5050697;28;20067;-65
2022/06/17 01:17:38;;;;;;;11.73;10.32;;;;;;;13.65;89.50;102346.66;5050313;28;20059;-65
2022/06/17 01:20:07;;;;;;;15.88;10.95;;;;;;;13.58;90.14;102344.38;5031573;28;20213;-65
2022/06/17 01:22:41;;;;;;;13.35;10.48;;;;;;;13.47;90.70;102345.81;5051464;28;20791;-65
2022/06/17 01:25:13;;;;;;;17.80;10.27;;;;;;;13.45;90.15;102346.81;5033615;28;20251;-65
2022/06/17 01:27:45;;;;;;;19.10;10.98;;;;;;;13.48;90.03;102355.56;5052886;28;20067;-65
2022/06/17 01:30:16;;;;;;;17.60;11.93;;;;;;;13.50;90.92;102354.63;5030315;28;20636;-65
2022/06/17 01:33:00;;;;;;;22.65;12.15;;;;;;;13.60;90.72;102354.06;5045567;28;20482;-65
2022/06/17 01:35:35;;;;;;;18.67;12.02;;;;;;;13.61;90.78;102350.47;5052717;28;20036;-65
2022/06/17 01:38:01;;;;;;;14.95;11.45;;;;;;;13.68;90.62;102356.38;5038319;28;20076;-65
2022/06/17 01:40:28;;;;;;;15.77;12.15;;;;;;;13.73;90.73;102355.16;5050657;28;20044;-65
2022/06/17 01:42:57;;;;;;;20.20;13.15;;;;;;;13.71;91.56;102357.06;5052650;28;20040;-65
2022/06/17 01:45:23;;;;;;;17.08;12.77;;;;;;;13.65;91.52;102348.47;5014469;28;20128;-65
2022/06/17 01:47:48;;;;;;;21.02;11.70;;;;;;;13.70;91.37;102355.34;5022730;28;20044;-65
2022/06/17 01:50:18;;;;;;;15.90;11.68;;;;;;;13.86;90.82;102351.84;5048699;28;20044;-65
2022/06/17 01:53:03;;;;;;;16.60;12.10;;;;;;;13.91;91.35;102349.81;5030777;28;20681;-65
2022/06/17 01:55:37;;;;;;;15.57;11.82;;;;;;;13.87;91.49;102342.88;5018612;28;20398;-65
2022/06/17 01:58:09;;;;;;;12.82;10.32;;;;;;;13.94;91.49;102346.94;5032669;28;20094;-65
2022/06/17 02:00:40;;;;;;;20.17;11.60;;;;;;;13.76;91.75;102342.56;5033299;28;20037;-65
2022/06/17 02:03:12;;;;;;;17.65;12.77;;;;;;;13.54;93.30;102351.72;5029279;28;20041;-65
2022/06/17 02:05:41;;;;;;;18.48;13.13;;;;;;;13.57;93.22;102354.25;5049622;28;20032;-64
2022/06/17 02:08:07;;;;;;;19.33;13.30;;;;;;;13.68;92.21;102356.38;5049946;28;20045;-65
2022/06/17 02:10:39;;;;;;;20.08;12.18;;;;;;;13.71;91.81;102351.72;5051203;28;20055;-65
2022/06/17 02:13:07;;;;;;;20.98;13.35;;;;;;;13.77;92.02;102341.63;5028048;28;20187;-64
2022/06/17 02:15:49;;;;;;;19.13;14.05;;;;;;;13.72;91.67;102339.19;5043927;28;20069;-65
2022/06/17 02:18:37;;;;;;;18.83;12.85;;;;;;;13.66;91.92;102340.38;5043060;28;20048;-65
2022/06/17 02:21:13;;;;;;;16.40;13.05;;;;;;;13.58;91.85;102347.06;5050405;28;20115;-65
2022/06/17 02:23:39;;;;;;;17.75;11.55;;;;;;;13.50;92.38;102344.75;5049239;28;20032;-65
2022/06/17 02:26:07;;;;;;;16.33;11.02;;;;;;;13.51;92.30;102349.22;5048822;28;20122;-65
2022/06/17 02:28:35;;;;;;;14.95;12.25;;;;;;;13.36;94.26;102350.84;5033240;28;20036;-64
2022/06/17 02:31:02;;;;;;;18.50;13.13;;;;;;;13.40;93.61;102349.75;5050031;28;20314;-65
2022/06/17 02:33:30;;;;;;;17.73;11.88;;;;;;;13.43;93.64;102346.03;5029563;28;20805;-65
2022/06/17 02:36:02;;;;;;;19.08;11.68;;;;;;;13.46;93.31;102349.44;5023502;28;20143;-65
2022/06/17 02:38:32;;;;;;;18.48;12.82;;;;;;;13.55;93.36;102342.72;5051348;28;20084;-65
2022/06/17 02:41:05;;;;;;;18.10;12.73;;;;;;;13.48;93.37;102344.84;5050782;28;20041;-65
2022/06/17 02:43:35;;;;;;;17.75;13.43;;;;;;;13.60;93.23;102346.03;5029836;28;20785;-65
2022/06/17 02:46:13;;;;;;;16.60;12.40;;;;;;;13.64;93.29;102344.91;5022327;28;20037;-65
2022/06/17 02:48:51;;;;;;;17.20;13.68;;;;;;;13.64;93.74;102344.06;5016984;28;20127;-65
2022/06/17 02:51:16;;;;;;;20.63;13.73;;;;;;;13.63;93.71;102340.50;5045386;28;20094;-65
2022/06/17 02:53:44;;;;;;;19.52;14.43;;;;;;;13.68;93.36;102345.63;5051224;28;20340;-65
2022/06/17 02:56:20;;;;;;;19.48;13.98;;;;;;;13.69;93.30;102332.16;5030082;28;20028;-65
2022/06/17 02:59:08;;;;;;;20.33;13.82;;;;;;;13.75;92.81;102328.28;5032300;28;20083;-65
2022/06/17 03:01:41;;;;;;;20.52;14.07;;;;;;;13.71;93.41;102318.69;5030418;28;20873;-65
2022/06/17 03:04:25;;;;;;;22.23;13.43;;;;;;;13.67;93.67;102317.97;5027934;28;20527;-65
2022/06/17 03:06:50;;;;;;;17.67;13.55;;;;;;;13.81;93.10;102311.88;5047808;28;20558;-65
2022/06/17 03:09:24;;;;;;;20.52;13.52;;;;;;;13.85;92.61;102312.56;5030467;28;20070;-65
2022/06/17 03:12:19;;;;;;;19.33;13.05;;;;;;;13.83;92.59;102322.50;5049720;28;20028;-65
2022/06/17 03:14:51;;;;;;;19.05;11.45;;;;;;;13.53;92.90;102333.91;5030283;28;20043;-66
2022/06/17 03:17:20;;;;;;;15.55;11.85;;;;;;;13.33;93.77;102326.88;5031971;28;20158;-65
2022/06/17 03:19:47;;;;;;;19.48;12.30;;;;;;;13.50;92.75;102333.19;5030246;28;20036;-65
2022/06/17 03:22:13;;;;;;;20.70;12.77;;;;;;;13.46;93.07;102333.34;5019506;28;20045;-65
2022/06/17 03:24:58;;;;;;;19.27;12.93;;;;;;;13.38;92.70;102338.22;5047682;28;20152;-65
2022/06/17 03:27:48;;;;;;;16.40;12.85;;;;;;;13.27;93.24;102340.59;5028135;28;20829;-65
2022/06/17 03:30:18;;;;;;;19.10;13.52;;;;;;;13.45;92.24;102347.72;5016904;28;20059;-65
2022/06/17 03:32:48;;;;;;;18.35;13.55;;;;;;;13.45;92.26;102341.47;5051230;28;20067;-65
2022/06/17 03:35:22;;;;;;;19.27;13.95;;;;;;;13.49;92.58;102345.72;5028817;28;20029;-65
2022/06/17 03:37:58;;;;;;;18.52;13.35;;;;;;;13.56;92.87;102347.16;5040384;28;20044;-65
2022/06/17 03:40:36;;;;;;;15.93;13.32;;;;;;;13.72;91.70;102360.63;5028282;28;20049;-65
2022/06/17 03:43:15;;;;;;;18.67;13.88;;;;;;;13.70;91.16;102366.06;5025660;28;20036;-65
2022/06/17 03:45:52;;;;;;;16.25;12.18;;;;;;;13.74;91.17;102380.16;5049831;28;20053;-65
2022/06/17 03:48:32;;;;;;;17.30;12.80;;;;;;;13.80;90.23;102376.28;5029114;28;20060;-65
2022/06/17 03:50:57;;;;;;;15.85;12.02;;;;;;;13.84;90.13;102376.06;5042925;28;20310;-65
2022/06/17 03:53:33;;;;;;;20.80;14.02;;;;;;;13.62;91.98;102370.94;5049078;28;20094;-65
2022/06/17 03:56:10;;;;;;;16.55;13.20;;;;;;;13.67;91.87;102378.75;5030290;28;20065;-65
2022/06/17 03:58:40;;;;;;;17.20;13.60;;;;;;;13.83;91.08;102377.00;5046365;28;20039;-65
2022/06/17 04:01:27;;;;;;;18.95;13.25;;;;;;;13.83;91.35;102384.19;5028326;28;20033;-65
2022/06/17 04:04:09;;;;;;;16.23;13.02;;;;;;;13.80;91.73;102385.19;5028227;28;20747;-65
2022/06/17 04:06:38;;;;;;;19.08;14.05;;;;;;;13.84;91.34;102378.72;5016107;28;20028;-65
2022/06/17 04:09:25;;;;;;;18.00;12.18;;;;;;;13.98;90.31;102378.00;5011193;28;20380;-65
2022/06/17 04:11:57;;;;;;;14.77;12.07;;;;;;;14.21;90.04;102377.66;5027749;28;20151;-65
2022/06/17 04:14:54;;;;;;;17.45;13.05;;;;;;;14.39;90.12;102373.09;5010664;28;20037;-65
2022/06/17 04:17:32;;;;;;;19.67;14.15;;;;;;;14.76;89.10;102373.78;4984621;28;20045;-65
2022/06/17 04:20:20;;;;;;;22.63;14.07;;;;;;;15.01;88.51;102370.56;5027050;28;20044;-65
2022/06/17 04:22:48;;;;;;;21.65;14.88;;;;;;;15.19;88.28;102361.41;5030293;28;20025;-66
2022/06/17 04:25:42;;;;;;;20.42;15.02;;;;;;;15.52;87.29;102363.94;5011106;28;20152;-65
2022/06/17 04:28:14;;;;;;;21.10;16.05;;;;;;;15.63;86.81;102359.75;5028544;28;20063;-65
2022/06/17 04:30:46;;;;;;;30.90;17.17;;;;;;;15.67;87.26;102362.19;5029243;28;20477;-65
2022/06/17 04:33:34;;;;;;;20.67;15.60;;;;;;;15.75;87.21;102359.88;5031532;28;20086;-65
2022/06/17 04:36:33;;;;;;;24.55;15.80;;;;;;;15.71;87.99;102352.09;5048376;28;20041;-66
2022/06/17 04:39:22;;;;;;;24.98;17.38;;;;;;;15.50;88.14;102356.91;4970253;28;20701;-66
2022/06/17 04:42:07;;;;;;;24.27;15.95;;;;;;;15.89;87.29;102347.41;4983310;28;20057;-65
2022/06/17 04:44:34;;;;;;;25.45;16.90;;;;;;;15.96;88.10;102346.06;4988347;28;21144;-66
2022/06/17 04:47:09;;;;;;;22.30;16.17;;;;;;;16.20;86.92;102343.69;4988439;28;20118;-65
2022/06/17 04:49:46;;;;;;;21.02;15.82;;;;;;;16.38;87.17;102342.53;4976131;28;20160;-66
2022/06/17 04:52:36;;;;;;;24.67;16.52;;;;;;;16.30;88.09;102334.91;4981954;28;20038;-65
2022/06/17 04:55:26;;;;;;;25.17;17.05;;;;;;;16.52;87.44;102336.25;4989476;28;20112;-65
2022/06/17 04:57:59;;;;;;;25.25;17.75;;;;;;;16.48;87.94;102343.66;4989775;28;20354;-65
2022/06/17 05:00:26;;;;;;;28.50;17.38;;;;;;;16.56;88.81;102337.75;4984253;28;20392;-66
2022/06/17 05:02:55;;;;;;;21.23;16.80;;;;;;;16.74;88.73;102328.53;4989270;28;20285;-65
2022/06/17 05:05:44;;;;;;;23.20;17.55;;;;;;;16.91;88.61;102326.53;4992117;28;20080;-65
2022/06/17 05:08:36;;;;;;;23.88;16.80;;;;;;;17.18;87.12;102319.31;4989600;28;20056;-65
2022/06/17 05:11:12;;;;;;;22.27;16.25;;;;;;;17.11;87.90;102326.06;4981242;28;20037;-65
2022/06/17 05:13:52;;;;;;;25.52;16.92;;;;;;;17.11;87.21;102325.22;4974955;28;20038;-65
2022/06/17 05:16:18;;;;;;;18.83;14.73;;;;;;;17.17;87.19;102333.78;5018961;28;20087;-65
2022/06/17 05:18:43;;;;;;;23.15;16.08;;;;;;;17.30;86.41;102337.34;5016745;28;20116;-65
2022/06/17 05:21:20;;;;;;;22.63;14.93;;;;;;;17.46;86.07;102344.41;5025177;28;20994;-66
2022/06/17 05:23:52;;;;;;;20.00;14.95;;;;;;;17.69;84.56;102349.06;5027677;28;20161;-66
2022/06/17 05:26:18;;;;;;;22.15;15.45;;;;;;;17.77;84.21;102353.97;5024799;28;20153;-65
2022/06/17 05:28:44;;;;;;;23.25;14.75;;;;;;;17.97;84.01;102342.66;5040107;28;20040;-66
2022/06/17 05:31:15;;;;;;;21.20;14.05;;;;;;;17.98;83.59;102336.28;5036082;28;20028;-65
2022/06/17 05:33:47;;;;;;;19.98;13.90;;;;;;;17.98;84.60;102333.59;5043175;28;20089;-65
2022/06/17 05:36:13;;;;;;;18.10;14.18;;;;;;;18.35;82.44;102323.69;5054051;28;20041;-65
2022/06/17 05:38:39;;;;;;;21.90;12.93;;;;;;;18.66;81.02;102332.25;5038195;28;20040;-66
2022/06/17 05:41:06;;;;;;;23.35;13.43;;;;;;;18.40;80.25;102330.59;5041872;28;20035;-66
2022/06/17 05:43:33;;;;;;;22.15;13.95;;;;;;;18.31;81.77;102330.28;5028994;28;20088;-65
2022/06/17 05:45:59;;;;;;;19.27;13.38;;;;;;;18.44;81.50;102327.56;5055530;28;20896;-66
2022/06/17 05:48:45;;;;;;;19.05;10.75;;;;;;;18.37;77.56;102329.88;5047560;28;20055;-66
2022/06/17 05:51:31;;;;;;;17.33;11.05;;;;;;;18.24;74.39;102333.56;5033792;28;20037;-66
2022/06/17 05:54:17;;;;;;;17.65;11.40;;;;;;;18.69;76.75;102332.06;5047959;28;20455;-66
2022/06/17 05:56:47;;;;;;;20.77;10.10;;;;;;;20.52;69.54;102326.91;5053260;28;20048;-66
2022/06/17 05:59:12;;;;;;;13.00;8.93;;;;;;;21.35;63.92;102318.16;5061349;28;20036;-65
2022/06/17 06:01:38;;;;;;;11.25;7.85;;;;;;;21.93;61.58;102313.06;5044758;28;20047;-65
2022/06/17 06:04:04;;;;;;;12.63;7.63;;;;;;;22.42;57.13;102314.16;5019622;28;20359;-65
2022/06/17 06:06:30;;;;;;;10.38;8.15;;;;;;;22.47;56.39;102310.03;5032363;28;20105;-66
2022/06/17 06:08:56;;;;;;;15.60;7.75;;;;;;;22.71;58.14;102319.69;5043072;28;20036;-65
2022/06/17 06:11:22;;;;;;;13.30;6.50;;;;;;;23.40;54.69;102321.47;5021383;28;20835;-66
2022/06/17 06:13:47;;;;;;;11.68;6.68;;;;;;;23.65;54.48;102317.31;5048662;28;20044;-65
2022/06/17 06:16:15;;;;;;;11.60;6.75;;;;;;;24.01;52.16;102324.66;5015080;28;20028;-65
2022/06/17 06:18:47;;;;;;;8.73;5.68;;;;;;;24.65;50.27;102319.31;5045475;28;20226;-65
2022/06/17 06:21:16;;;;;;;8.25;6.55;;;;;;;24.48;48.54;102319.13;5057537;22;20101;-69
2022/06/17 06:23:42;;;;;;;11.27;6.68;;;;;;;24.64;48.22;102325.78;5106838;22;20060;-67
2022/06/17 06:26:16;;;;;;;8.68;5.80;;;;;;;25.52;49.64;102327.69;5046586;28;20493;-66
2022/06/17 06:28:46;;;;;;;11.07;5.63;;;;;;;25.64;46.18;102325.56;5081244;28;20028;-67
2022/06/17 06:31:37;;;;;;;8.32;5.50;;;;;;;25.38;47.43;102317.34;5064015;28;20036;-67
2022/06/17 06:34:10;;;;;;;6.57;4.38;;;;;;;25.48;46.43;102326.31;5047523;28;20028;-67
2022/06/17 06:36:40;;;;;;;5.25;4.65;;;;;;;25.58;47.29;102318.00;5048797;28;20028;-67
2022/06/17 06:39:05;;;;;;;6.63;5.13;;;;;;;25.62;46.15;102315.81;5048074;28;20109;-67
2022/06/17 06:41:31;;;;;;;9.50;4.55;;;;;;;25.86;47.65;102326.09;5048831;28;20040;-66
2022/06/17 06:43:57;;;;;;;10.57;4.55;;;;;;;25.99;45.87;102307.38;5048738;28;20039;-66
2022/06/17 06:46:48;;;;;;;6.45;3.70;;;;;;;26.05;45.20;102303.97;5050792;28;20041;-66
2022/06/17 06:49:29;;;;;;;5.80;4.18;;;;;;;25.26;46.68;102297.63;5048172;28;20471;-66
2022/06/17 06:51:55;;;;;;;6.35;4.35;;;;;;;24.73;45.51;102300.31;5049121;28;20048;-67
2022/06/17 06:54:21;;;;;;;5.55;4.32;;;;;;;24.44;46.09;102290.44;5046586;28;20470;-67
2022/06/17 06:56:46;;;;;;;5.03;3.90;;;;;;;25.46;46.46;102289.25;5049784;28;20044;-67
2022/06/17 06:59:12;;;;;;;8.70;4.32;;;;;;;26.12;45.17;102285.91;5062354;28;20040;-67
2022/06/17 07:01:38;;;;;;;6.10;3.50;;;;;;;27.20;44.29;102288.75;5064615;28;20410;-68
2022/06/17 07:04:04;;;;;;;9.07;3.83;;;;;;;26.27;42.23;102289.72;5047229;28;20037;-68
2022/06/17 07:06:33;;;;;;;6.75;3.80;;;;;;;26.97;43.28;102292.16;5049646;28;20044;-67
2022/06/17 07:08:59;;;;;;;8.18;3.58;;;;;;;27.21;43.25;102295.94;5049490;28;20265;-67
2022/06/17 07:11:24;;;;;;;6.68;3.45;;;;;;;27.26;41.47;102288.94;5046972;28;20048;-67
2022/06/17 07:13:50;;;;;;;5.05;3.35;;;;;;;27.22;40.61;102286.72;5048517;28;20032;-67
2022/06/17 07:16:16;;;;;;;9.50;3.35;;;;;;;27.36;43.76;102284.16;5047129;28;20040;-67
2022/06/17 07:18:41;;;;;;;5.03;3.15;;;;;;;27.88;40.48;102280.13;5049264;28;20062;-67
2022/06/17 07:21:09;;;;;;;7.03;3.10;;;;;;;26.93;41.83;102276.25;5046235;28;20628;-68
2022/06/17 07:23:41;;;;;;;5.18;3.45;;;;;;;26.93;42.63;102273.50;5044566;28;20060;-67
2022/06/17 07:26:27;;;;;;;6.22;3.25;;;;;;;26.69;44.06;102277.91;5046568;28;20089;-68
2022/06/17 07:28:54;;;;;;;5.80;2.95;;;;;;;26.28;42.78;102264.09;5047128;28;20051;-67
2022/06/17 07:31:22;;;;;;;7.97;3.65;;;;;;;25.63;43.82;102271.94;5046440;28;20409;-67
2022/06/17 07:33:48;;;;;;;5.03;3.25;;;;;;;25.64;43.54;102261.88;5047722;28;20017;-68
2022/06/17 07:39:53;;;;;;;5.55;3.40;;;;;;;25.91;42.76;102260.88;5046989;28;20033;-68
2022/06/17 07:41:50;;;;;;;4.75;3.00;;;;;;;27.04;42.63;102253.97;5045645;28;20554;-68
2022/06/17 07:44:17;;;;;;;6.25;3.50;;;;;;;26.95;42.20;102255.00;5045846;28;20039;-67
2022/06/17 07:46:43;;;;;;;6.00;3.00;;;;;;;25.57;44.34;102259.78;5047406;28;20028;-68
2022/06/17 07:49:09;;;;;;;5.03;3.42;;;;;;;25.15;45.21;102272.44;5047152;28;20046;-67
2022/06/17 07:51:35;;;;;;;5.70;3.90;;;;;;;24.54;45.61;102265.84;5048311;28;20047;-68
2022/06/17 07:54:00;;;;;;;7.20;4.07;;;;;;;25.01;47.88;102269.22;5047551;28;20032;-68
2022/06/17 07:56:26;;;;;;;3.50;2.83;;;;;;;25.73;45.43;102269.94;5049246;28;20662;-68
2022/06/17 07:58:52;;;;;;;7.97;3.50;;;;;;;26.65;44.47;102268.31;5048616;28;20052;-68
2022/06/17 08:01:18;;;;;;;8.82;3.90;;;;;;;27.27;42.31;102268.75;5047471;28;20137;-67
2022/06/17 08:03:46;;;;;;;8.90;3.80;;;;;;;27.16;46.11;102270.94;5048725;28;20518;-68
2022/06/17 08:06:13;;;;;;;7.40;3.25;;;;;;;26.26;43.24;102265.28;5047894;28;20040;-68
2022/06/17 08:08:40;;;;;;;6.32;3.55;;;;;;;26.80;42.47;102279.47;5049052;28;20041;-68
2022/06/17 08:11:07;;;;;;;6.57;2.95;;;;;;;27.22;42.67;102282.09;5048320;28;20048;-68
2022/06/17 08:13:32;;;;;;;9.32;4.38;;;;;;;26.99;42.76;102279.13;5047809;28;20573;-68
2022/06/17 08:16:00;;;;;;;6.10;3.35;;;;;;;27.54;41.11;102281.19;5045598;28;20041;-68
2022/06/17 08:18:26;;;;;;;9.13;3.00;;;;;;;27.53;42.48;102281.38;5047091;28;20032;-67
2022/06/17 08:20:52;;;;;;;9.20;2.90;;;;;;;27.47;40.80;102280.19;5046893;28;20062;-68
2022/06/17 08:23:19;;;;;;;5.85;3.33;;;;;;;27.07;39.54;102278.31;5048316;28;20691;-67
2022/06/17 08:25:45;;;;;;;6.90;3.20;;;;;;;27.46;39.16;102272.13;5052707;28;20139;-69
2022/06/17 08:28:12;;;;;;;5.60;2.80;;;;;;;27.36;39.17;102275.94;5052309;28;20038;-68
2022/06/17 08:30:42;;;;;;;6.60;3.70;;;;;;;26.64;39.91;102277.56;5049679;28;20143;-68
2022/06/17 08:33:07;;;;;;;7.22;3.80;;;;;;;26.91;39.24;102272.78;5051309;28;20071;-68
2022/06/17 08:35:36;;;;;;;4.85;3.50;;;;;;;26.99;40.98;102272.81;5053316;28;20052;-67
2022/06/17 08:38:14;;;;;;;6.65;3.08;;;;;;;27.17;40.81;102281.75;5051245;28;20055;-68
2022/06/17 08:40:54;;;;;;;7.78;3.72;;;;;;;27.33;39.29;102278.16;5052225;28;20541;-68
2022/06/17 08:43:52;;;;;;;7.47;3.30;;;;;;;27.31;40.28;102285.66;5051128;28;20033;-67
2022/06/17 08:46:44;;;;;;;11.57;3.13;;;;;;;27.94;38.52;102286.78;5050565;28;20043;-67
2022/06/17 08:49:24;;;;;;;7.10;2.83;;;;;;;28.22;39.70;102293.56;5050579;28;20342;-68
2022/06/17 08:51:58;;;;;;;4.63;3.40;;;;;;;28.32;39.59;102283.22;5051889;28;20055;-68
2022/06/17 08:55:03;;;;;;;7.85;3.28;;;;;;;27.75;38.24;102277.94;5051192;28;20038;-67
2022/06/17 08:57:41;;;;;;;7.00;3.58;;;;;;;28.36;38.94;102272.75;5046808;28;20135;-68
2022/06/17 09:00:20;;;;;;;5.80;3.35;;;;;;;28.49;40.77;102267.53;5049977;28;20878;-68
2022/06/17 09:03:01;;;;;;;12.85;4.22;;;;;;;28.08;40.84;102277.84;5051291;28;20064;-68
2022/06/17 09:05:42;;;;;;;6.40;4.05;;;;;;;27.27;41.43;102271.47;5049910;28;20032;-67
2022/06/17 09:08:35;;;;;;;9.00;4.53;;;;;;;27.07;40.47;102276.44;5050623;28;20481;-68
2022/06/17 09:11:13;;;;;;;9.45;3.42;;;;;;;28.05;41.95;102273.53;5046535;28;20127;-67
2022/06/17 09:14:03;;;;;;;9.43;3.70;;;;;;;27.55;41.08;102282.91;5049808;28;20336;-69
2022/06/17 09:17:09;;;;;;;6.72;3.38;;;;;;;27.99;39.80;102278.91;5051502;28;20148;-69
2022/06/17 09:19:40;;;;;;;9.27;3.70;;;;;;;27.51;40.44;102267.88;5045570;28;20043;-68
2022/06/17 09:22:21;;;;;;;6.90;3.63;;;;;;;27.50;39.59;102266.13;5048816;28;20056;-67
2022/06/17 09:24:46;;;;;;;12.25;4.20;;;;;;;27.68;41.81;102265.09;5047864;28;20364;-68
2022/06/17 09:27:25;;;;;;;7.60;3.83;;;;;;;27.49;38.96;102260.81;5047120;28;20097;-67
2022/06/17 09:30:02;;;;;;;8.45;3.72;;;;;;;27.43;40.87;102265.13;5048893;28;20032;-69
2022/06/17 09:32:42;;;;;;;8.15;3.88;;;;;;;27.98;41.94;102267.06;5050392;28;20519;-68
2022/06/17 09:35:12;;;;;;;6.63;3.92;;;;;;;27.69;39.52;102261.31;5039303;28;20470;-68
2022/06/17 09:37:57;;;;;;;10.68;3.40;;;;;;;28.07;39.82;102263.28;5051210;28;20946;-68
2022/06/17 09:40:25;;;;;;;8.20;3.55;;;;;;;27.83;38.39;102266.09;5050265;28;20078;-69
2022/06/17 09:43:11;;;;;;;9.63;3.97;;;;;;;27.88;39.56;102270.03;5051263;28;20047;-69
2022/06/17 09:45:43;;;;;;;4.45;3.58;;;;;;;27.77;40.59;102272.28;5050880;28;20055;-68
2022/06/17 09:48:34;;;;;;;7.93;4.22;;;;;;;27.79;40.58;102272.97;5050366;28;20633;-68
2022/06/17 09:51:33;;;;;;;12.55;4.05;;;;;;;27.68;39.18;102273.31;5050918;28;20651;-68
2022/06/17 09:54:14;;;;;;;6.15;4.00;;;;;;;27.86;40.49;102262.97;5056410;28;20123;-68
2022/06/17 09:56:48;;;;;;;7.10;3.28;;;;;;;27.80;42.19;102259.06;5050570;28;20115;-68
2022/06/17 09:59:24;;;;;;;5.03;3.20;;;;;;;27.90;40.66;102256.13;5046771;28;21047;-67
2022/06/17 10:01:49;;;;;;;8.38;3.75;;;;;;;27.92;41.60;102256.81;5040660;28;20123;-68
2022/06/17 10:04:16;;;;;;;10.93;3.95;;;;;;;28.26;37.82;102250.97;5049459;28;20101;-67
2022/06/17 10:07:02;;;;;;;7.95;3.97;;;;;;;28.13;41.08;102258.97;5048923;28;20098;-67
2022/06/17 10:09:53;;;;;;;7.10;3.92;;;;;;;28.16;39.92;102249.50;5048454;28;20044;-66
2022/06/17 10:12:41;;;;;;;6.65;3.88;;;;;;;28.20;40.11;102259.09;5047734;28;20066;-67
2022/06/17 10:18:52;;;;;;;8.32;3.63;;;;;;;28.12;38.84;102249.03;5049189;28;20045;-66
2022/06/17 10:21:37;;;;;;;9.68;3.90;;;;;;;27.98;39.09;102247.88;5047369;28;20101;-66
2022/06/17 10:24:34;;;;;;;14.43;3.65;;;;;;;28.09;38.83;102246.63;5048464;28;20952;-66
2022/06/17 10:27:36;;;;;;;5.40;2.83;;;;;;;27.91;37.04;102254.22;5051856;28;20407;-68
2022/06/17 10:30:13;;;;;;;6.03;2.30;;;;;;;28.47;36.86;102249.56;5037674;28;20828;-69
2022/06/17 10:32:43;;;;;;;5.10;2.53;;;;;;;28.03;37.29;102250.09;5051345;28;20053;-68
2022/06/17 10:35:23;;;;;;;9.35;3.22;;;;;;;28.15;36.64;102234.94;5052333;28;20040;-68
2022/06/17 10:37:49;;;;;;;5.03;2.30;;;;;;;28.00;36.96;102236.72;5052645;28;20584;-68
2022/06/17 10:40:17;;;;;;;7.13;3.08;;;;;;;28.51;37.33;102238.00;5051198;28;20041;-68
2022/06/17 10:42:46;;;;;;;3.97;2.67;;;;;;;28.27;37.40;102232.66;5052011;28;20091;-69
2022/06/17 10:45:17;;;;;;;4.15;2.80;;;;;;;28.06;36.57;102236.88;5050266;28;20048;-69
2022/06/17 10:47:57;;;;;;;5.53;3.05;;;;;;;28.60;36.82;102236.91;5050658;28;20049;-69
2022/06/17 10:50:28;;;;;;;4.53;2.47;;;;;;;28.42;38.16;102224.53;5050040;28;20072;-68
2022/06/17 10:53:12;;;;;;;5.50;2.13;;;;;;;28.55;38.62;102227.53;5048810;28;20037;-69
2022/06/17 10:55:43;;;;;;;5.60;2.90;;;;;;;27.68;37.40;102215.75;5051503;28;20045;-68
2022/06/17 10:58:18;;;;;;;4.80;2.53;;;;;;;28.09;35.82;102202.72;5047335;28;20143;-69
2022/06/17 11:00:53;;;;;;;4.10;3.00;;;;;;;28.75;37.43;102215.03;5053058;28;20049;-69
2022/06/17 11:03:29;;;;;;;5.18;3.05;;;;;;;28.83;37.25;102216.88;5052849;28;20040;-68
2022/06/17 11:06:13;;;;;;;8.13;2.50;;;;;;;29.08;36.33;102209.28;5050395;28;20036;-69
2022/06/17 11:08:53;;;;;;;28.90;4.03;;;;;;;29.05;34.65;102210.50;5050036;28;20155;-68
2022/06/17 11:14:27;;;;;;;6.70;2.30;;;;;;;29.33;37.04;102215.41;5048496;28;20191;-69
2022/06/17 11:16:52;;;;;;;14.65;2.80;;;;;;;29.32;35.21;102194.44;5056170;28;20655;-69
2022/06/17 11:19:21;;;;;;;4.95;2.65;;;;;;;28.96;33.75;102192.38;5054020;28;20041;-69
2022/06/17 11:21:51;;;;;;;6.40;2.45;;;;;;;28.88;34.70;102187.81;5054816;28;20105;-69
2022/06/17 11:24:32;;;;;;;6.70;2.40;;;;;;;29.21;38.53;102192.16;5051534;28;20040;-69
2022/06/17 11:27:07;;;;;;;5.45;2.17;;;;;;;29.04;35.76;102185.97;5062584;28;20028;-69
2022/06/17 11:29:44;;;;;;;5.97;2.50;;;;;;;29.44;36.83;102179.19;5049737;28;20093;-68
2022/06/17 11:32:19;;;;;;;5.45;2.25;;;;;;;29.29;34.97;102186.59;5055015;28;20047;-68
2022/06/17 11:34:51;;;;;;;8.20;2.53;;;;;;;29.13;36.44;102182.13;5052899;28;20048;-68
2022/06/17 11:37:21;;;;;;;6.22;2.72;;;;;;;29.55;36.09;102187.00;5059171;28;20040;-68
2022/06/17 11:39:46;;;;;;;5.47;2.15;;;;;;;29.05;36.01;102179.44;5061938;28;20028;-68
2022/06/17 11:42:18;;;;;;;7.90;2.97;;;;;;;29.32;36.88;102172.44;5055982;28;20824;-69
2022/06/17 11:44:57;;;;;;;7.28;2.50;;;;;;;28.72;36.80;102176.97;5052360;28;20094;-70
2022/06/17 11:47:26;;;;;;;8.52;2.45;;;;;;;29.51;38.75;102166.38;5052320;28;20044;-69
2022/06/17 11:49:57;;;;;;;2.65;2.30;;;;;;;29.85;35.39;102157.56;5047925;28;20082;-69
2022/06/17 11:52:35;;;;;;;5.50;2.87;;;;;;;29.31;33.54;102144.13;5048031;28;20570;-70
2022/06/17 11:55:02;;;;;;;5.97;2.60;;;;;;;29.26;35.76;102152.06;5045075;28;20529;-69
2022/06/17 11:57:31;;;;;;;7.55;2.35;;;;;;;28.78;35.31;102148.75;5047048;28;20032;-70